Main page
METAR-TAF:

METAR-TAF

Airports :

Wattay International Airport

Vientiane, Laos

latitude: 17-57N, longitude: 102-34E, elevation: 171 m

Current weather observation

The report was made 31 minutes ago, at 09:30 UTC
Wind 4 kt from the South/Southeast
Temperature 30°C
Humidity 40%
Pressure 1012 hPa
Visibility: 8000 m

METAR: VLVT 240930Z 16004KT 8000 NSC 30/15 Q1012 NOSIG

Time: 17:01 (10:01 UTC)

Forecast

The report was made 5 hours and 1 minutes ago, at 05:00 UTC
Forecast valid from 24 at 06 UTC to 25 at 06 UTC
Wind 6 kt from the East
Visibility: 8000 m
Few clouds at a height of 2000 ft
Few clouds at a height of 20000 ft

TAF: VLVT 240500Z 2406/2506 09006KT 8000 FEW020 FEW200

Weather observations and forecasts of more than 4000 airports (METAR and TAF reports).

The available stations are represented by yellow and red dots on the map.

Hover mouse over dot to see the name of the station.

Then click to see weather observations and forecasts.

To change the map : click on the green buttons with a black cross to zoom in, on the green button with a dash to zoom out, or on the green arrows for adjacent maps.


METAR-TAF: